Terminal Aerodrome Forecast
Issued by NWS

Home | Current Version | Previous Version | Text Only | Print | Product List | Glossary On
Versions: 1 2 3 4 5 6 7 8 9 10 11 12 13 14
422
FTUS43 KILX 031140
TAFDEC
TAF
KDEC 031140Z 0312/0412 VRB04KT P6SM OVC040
     FM031600 VRB05KT P6SM SCT035 BKN150
     FM041000 10004KT P6SM -SN OVC060=

USA.gov is the U.S. government's official web portal to all federal, state and local government web resources and services.